Antalya, Turcja

05:34 EEST dnia 03-sierpień-2015 (GMT +0300)
Antalya | | Change Station
CLOSE
Current Station
Lotnisko
Location: Antalya,
n.p.m.: 174 ft
Najbliższa stacja pogodowa

Wysokość 174 ft 36.90 °N, 30.80 °E | Updated 14 minutes ago

Clear
pogodnie
82 ° F
Odczuwalna 81 ° F
Płn.
7
Wiatr zmienny Wiatr od PnPnZd

Dziś
Wysoka -- | Niska -- ° F
--% Prawdop. opadów
Wczoraj
Wysoka -- | Niska -- ° F
Precip. -- cali
6:03 AM 8:02 PM
Zmniejszający się Księżyc, 90% visible
Ciśnienie 29.77 cali
Widzialność -9999.0 mil
chmury
Odczucie gorąca 81 ° F
Punkt rosy 54 ° F
Wilgotność 37%
Opady deszczu 0.00 cali
grubość pokrywy śnieżnej Niedostępne.
UV Niedostępne.
Pyłki Niedostępne.
Jakość powietrza Niedostępne.
Flu Activity Niedostępne.
METAR LTAI 030220Z 34006KT CAVOK 28/12 Q1008 NOSIG

More Conditions Fewer Conditions

Ciśnienie 29.77 cali
Widzialność -9999.0 mil
chmury
Odczucie gorąca 81 ° F
Punkt rosy 54 ° F
Wilgotność 37%
Opady deszczu 0.00 cali
grubość pokrywy śnieżnej Niedostępne.
UV Niedostępne.
Pyłki Niedostępne.
Jakość powietrza Niedostępne.
Flu Activity Niedostępne.
METAR LTAI 030220Z 34006KT CAVOK 28/12 Q1008 NOSIG

More Conditions Fewer Conditions

10-Day Weather Forecast

×

Almanac

Astronomia

Aug. 03, 2015 Wschód Zachów
Aktualny czas
Zmierzch cywilny
Zmierzch żeglarski
świt/zmierzch astronomiczny
Księżyc
całkowite oświetlenie
Długość dnia
Tomorrow will be .
, % of the Moon is Illuminated

Dzisiejsze ekstrema

Country Highs Country Lows

Community

WunderPhotos

Upload Photos

1,843,524 zdjęcia zostały przesłane!

WunderBlogs® & News

Nearby

Jakość powietrza

  Jakość powietrza czynnik AQ Zanieczyszczenie
Not available.

Głębokość pokrywy śnieżnej

Station Depth n.p.m.

Aktywność sejsmiczna

Miejscowość Distance Mag. Time & Date
Minimum magnitude displayed is 2.5.

Temperatury wody na wybrzeżu

Miejsce Temperatura

Stations

Najbliższa stacja pogodowa

Lokalizacja stacji Temp. czynnik chłodzący wiatru Punkt rosy Wilgotność Wiatr Precip. Wysokość Uaktualniono Typ